createdAt,value
2023-05-09T00:00:56.799Z,82.00
2023-05-09T00:03:23.541Z,82.10
2023-05-09T00:05:50.341Z,82.20
2023-05-09T00:08:17.056Z,82.30
2023-05-09T00:10:43.742Z,82.30
2023-05-09T00:13:13.021Z,82.40
2023-05-09T00:15:39.834Z,82.40
2023-05-09T00:18:06.717Z,82.40
2023-05-09T00:20:33.487Z,82.40
2023-05-09T00:23:00.386Z,82.50
2023-05-09T00:25:27.119Z,82.60
2023-05-09T00:27:53.840Z,82.60
2023-05-09T00:30:20.594Z,82.60
2023-05-09T00:32:47.346Z,82.80
2023-05-09T00:35:14.300Z,82.90
2023-05-09T00:37:41.290Z,82.90
2023-05-09T00:40:08.459Z,82.90
2023-05-09T00:42:35.787Z,83.10
2023-05-09T00:45:02.659Z,83.10
2023-05-09T00:47:29.491Z,83.10
2023-05-09T00:49:59.291Z,83.10
2023-05-09T00:52:26.086Z,83.30
2023-05-09T00:54:53.563Z,83.10
2023-05-09T00:57:20.343Z,83.30
2023-05-09T00:59:47.133Z,83.30
2023-05-09T01:02:13.990Z,83.40
2023-05-09T01:04:40.798Z,83.40
2023-05-09T01:07:17.905Z,83.60
2023-05-09T01:10:02.806Z,83.60
2023-05-09T01:12:47.984Z,83.80
2023-05-09T01:15:14.829Z,83.80
2023-05-09T01:18:06.649Z,83.60
2023-05-09T01:20:39.978Z,83.80
2023-05-09T01:23:18.858Z,83.80
2023-05-09T01:25:48.404Z,83.90
2023-05-09T01:28:33.658Z,84.60
2023-05-09T01:31:00.430Z,83.80
2023-05-09T01:33:27.242Z,83.80
2023-05-09T01:35:57.834Z,83.90
2023-05-09T01:38:24.531Z,83.90
2023-05-09T01:40:53.314Z,84.00
2023-05-09T01:43:20.139Z,84.00
2023-05-09T01:45:47.352Z,84.00
2023-05-09T01:48:14.075Z,84.10
2023-05-09T01:50:40.839Z,84.20
2023-05-09T01:53:07.543Z,84.20
2023-05-09T01:55:35.121Z,84.20
2023-05-09T01:58:02.359Z,84.30
2023-05-09T02:00:29.154Z,84.30
2023-05-09T02:02:56.202Z,84.40
2023-05-09T02:05:24.390Z,84.30
2023-05-09T02:07:51.166Z,84.50
2023-05-09T02:10:17.870Z,84.40
2023-05-09T02:12:44.573Z,84.60
2023-05-09T02:15:11.417Z,84.60
2023-05-09T02:17:38.219Z,84.60
2023-05-09T02:20:09.010Z,84.70
2023-05-09T02:22:36.216Z,84.70
2023-05-09T02:25:03.474Z,84.80
2023-05-09T02:27:30.813Z,84.80
2023-05-09T02:29:57.535Z,84.90
2023-05-09T02:32:27.530Z,84.90
2023-05-09T02:34:54.545Z,85.10
2023-05-09T02:37:21.382Z,85.10
2023-05-09T02:39:48.161Z,85.10
2023-05-09T02:42:24.302Z,85.10
2023-05-09T02:44:54.304Z,85.20
2023-05-09T02:47:21.334Z,85.20
2023-05-09T02:49:48.227Z,85.20
2023-05-09T02:52:15.037Z,85.10
2023-05-09T02:54:41.722Z,85.20
2023-05-09T02:57:08.441Z,85.20
2023-05-09T02:59:35.144Z,85.20
2023-05-09T03:02:01.889Z,85.20
2023-05-09T03:04:28.612Z,85.20
2023-05-09T03:06:55.405Z,85.20
2023-05-09T03:09:22.121Z,85.20
2023-05-09T03:11:49.616Z,85.30
2023-05-09T03:14:16.315Z,85.40
2023-05-09T03:16:43.058Z,85.40
2023-05-09T03:19:09.751Z,85.40
2023-05-09T03:21:36.469Z,85.40
2023-05-09T03:24:03.224Z,85.40
2023-05-09T03:26:30.137Z,85.40
2023-05-09T03:28:56.843Z,85.40
2023-05-09T03:31:23.541Z,85.60
2023-05-09T03:33:50.293Z,85.60
2023-05-09T03:36:17.094Z,85.60
2023-05-09T03:38:44.238Z,85.60
2023-05-09T03:41:12.187Z,85.70
2023-05-09T03:43:39.059Z,85.70
2023-05-09T03:46:05.793Z,85.80
2023-05-09T03:48:32.536Z,85.90
2023-05-09T03:50:59.231Z,85.90
2023-05-09T03:53:26.031Z,85.90
2023-05-09T03:55:52.802Z,85.90
2023-05-09T03:58:19.675Z,85.90
2023-05-09T04:00:46.395Z,85.90
2023-05-09T04:03:13.154Z,85.90
2023-05-09T04:05:40.787Z,85.90
2023-05-09T04:08:07.489Z,86.00
2023-05-09T04:10:34.256Z,86.00
2023-05-09T04:13:01.013Z,86.00
2023-05-09T04:15:27.803Z,86.10
2023-05-09T04:17:54.629Z,86.00
2023-05-09T04:20:21.424Z,86.10
2023-05-09T04:22:48.101Z,86.20
2023-05-09T04:25:15.131Z,86.30
2023-05-09T04:27:42.049Z,86.30
2023-05-09T04:30:09.222Z,86.30
2023-05-09T04:32:36.044Z,86.30
2023-05-09T04:35:02.837Z,86.30
2023-05-09T04:37:29.519Z,86.30
2023-05-09T04:39:56.300Z,86.30
2023-05-09T04:42:23.039Z,86.30
2023-05-09T04:44:49.769Z,86.30
2023-05-09T04:47:16.418Z,86.30
2023-05-09T04:49:43.342Z,86.30
2023-05-09T04:52:10.058Z,86.50
2023-05-09T04:54:36.776Z,86.50
2023-05-09T04:57:16.680Z,86.60
2023-05-09T04:59:44.405Z,86.50
2023-05-09T05:02:11.110Z,86.50
2023-05-09T05:04:37.922Z,86.40
2023-05-09T05:07:04.847Z,86.50
2023-05-09T05:09:31.547Z,86.50
2023-05-09T05:12:02.354Z,86.40
2023-05-09T05:14:29.863Z,86.50
2023-05-09T05:16:56.661Z,86.40
2023-05-09T05:19:23.426Z,86.40
2023-05-09T05:21:50.118Z,86.40
2023-05-09T05:24:16.831Z,86.40
2023-05-09T05:26:43.567Z,86.50
2023-05-09T05:29:10.511Z,86.50
2023-05-09T05:31:37.338Z,86.50
2023-05-09T05:34:04.133Z,86.40
2023-05-09T05:36:30.797Z,86.40
2023-05-09T05:38:57.863Z,86.40
2023-05-09T05:41:24.537Z,86.30
2023-05-09T05:43:53.432Z,86.20
2023-05-09T05:46:20.995Z,86.20
2023-05-09T05:48:47.841Z,86.10
2023-05-09T05:51:14.711Z,86.20
2023-05-09T05:53:41.501Z,86.20
2023-05-09T05:56:08.390Z,86.20
2023-05-09T05:58:35.092Z,86.10
2023-05-09T06:01:05.265Z,86.10
2023-05-09T06:03:32.177Z,86.10
2023-05-09T06:05:59.290Z,86.00
2023-05-09T06:08:25.984Z,86.00
2023-05-09T06:10:52.686Z,86.10
2023-05-09T06:13:19.507Z,86.00
2023-05-09T06:15:46.330Z,86.00
2023-05-09T06:18:13.185Z,85.90
2023-05-09T06:20:39.938Z,85.90
2023-05-09T06:23:06.754Z,85.80
2023-05-09T06:25:33.728Z,85.80
2023-05-09T06:28:00.422Z,85.70
2023-05-09T06:30:27.360Z,85.60
2023-05-09T06:32:55.151Z,85.60
2023-05-09T06:35:22.167Z,85.60
2023-05-09T06:37:49.376Z,85.60
2023-05-09T06:40:16.765Z,85.40
2023-05-09T06:42:43.687Z,85.40
2023-05-09T06:45:10.955Z,85.40
2023-05-09T06:47:37.682Z,85.30
2023-05-09T06:50:05.151Z,85.20
2023-05-09T06:52:31.876Z,85.20
2023-05-09T06:54:58.672Z,85.20
2023-05-09T06:57:25.494Z,85.10
2023-05-09T06:59:52.200Z,85.00
2023-05-09T07:02:18.927Z,84.90
2023-05-09T07:04:45.680Z,84.80
2023-05-09T07:07:12.652Z,84.80
2023-05-09T07:09:39.379Z,84.80
2023-05-09T07:12:06.426Z,84.80
2023-05-09T07:14:33.126Z,84.70
2023-05-09T07:17:13.681Z,84.70
2023-05-09T07:19:45.403Z,84.70
2023-05-09T07:22:12.093Z,84.60
2023-05-09T07:24:38.810Z,84.50
2023-05-09T07:27:05.507Z,84.30
2023-05-09T07:29:32.374Z,84.20
2023-05-09T07:31:59.110Z,84.20
2023-05-09T07:34:25.978Z,84.20
2023-05-09T07:36:52.668Z,84.00
2023-05-09T07:39:20.045Z,84.00
2023-05-09T07:41:48.670Z,84.00
2023-05-09T07:44:15.805Z,83.90
2023-05-09T07:46:42.568Z,83.70
2023-05-09T07:49:09.428Z,84.50
2023-05-09T07:51:36.144Z,83.60
2023-05-09T07:54:02.893Z,83.50
2023-05-09T07:56:29.618Z,83.30
2023-05-09T07:58:56.331Z,83.30
2023-05-09T08:01:23.034Z,83.10
2023-05-09T08:03:49.888Z,83.00
2023-05-09T08:06:16.651Z,82.90
2023-05-09T08:08:43.385Z,82.80
2023-05-09T08:11:10.179Z,82.70
2023-05-09T08:13:36.889Z,82.60
2023-05-09T08:16:03.811Z,82.40
2023-05-09T08:18:30.578Z,82.30
2023-05-09T08:20:57.238Z,82.20
2023-05-09T08:23:24.050Z,82.00
2023-05-09T08:25:56.698Z,81.80
2023-05-09T08:28:23.396Z,81.70
2023-05-09T08:30:53.314Z,81.60
2023-05-09T08:33:20.174Z,81.40
2023-05-09T08:35:51.261Z,81.10
2023-05-09T08:38:18.047Z,80.70
2023-05-09T08:40:44.799Z,80.70
2023-05-09T08:43:12.219Z,80.90
2023-05-09T08:45:51.949Z,81.10
2023-05-09T08:48:18.787Z,81.00
2023-05-09T08:50:45.613Z,80.90
2023-05-09T08:53:12.446Z,80.70
2023-05-09T08:55:39.197Z,80.80
2023-05-09T08:58:06.213Z,80.90
2023-05-09T09:00:33.605Z,80.80
2023-05-09T09:03:01.833Z,80.60
2023-05-09T09:05:40.263Z,80.40
2023-05-09T09:08:08.170Z,80.00
2023-05-09T09:10:34.958Z,79.70
2023-05-09T09:13:04.285Z,79.40
2023-05-09T09:15:34.846Z,79.30
2023-05-09T09:18:08.966Z,79.00
2023-05-09T09:20:46.113Z,79.00
2023-05-09T09:23:12.941Z,78.60
2023-05-09T09:25:39.892Z,78.50
2023-05-09T09:28:06.723Z,78.50
2023-05-09T09:30:33.578Z,78.30
2023-05-09T09:33:00.488Z,78.30
2023-05-09T09:35:27.314Z,78.00
2023-05-09T09:37:59.662Z,77.80
2023-05-09T09:40:26.783Z,77.70
2023-05-09T09:42:53.529Z,77.70
2023-05-09T09:45:20.436Z,77.80
2023-05-09T09:47:47.938Z,77.90
2023-05-09T09:50:15.849Z,77.90
2023-05-09T09:52:56.026Z,77.60
2023-05-09T09:55:24.692Z,77.10
2023-05-09T09:57:51.499Z,77.10
2023-05-09T10:00:19.907Z,77.00
2023-05-09T10:02:56.627Z,76.90
2023-05-09T10:05:30.660Z,77.00
2023-05-09T10:07:59.222Z,77.10
2023-05-09T10:10:33.667Z,77.20
2023-05-09T10:13:03.033Z,77.00
2023-05-09T10:15:38.509Z,77.00
2023-05-09T10:18:08.736Z,77.00
2023-05-09T10:20:35.635Z,76.80
2023-05-09T10:23:02.740Z,76.70
2023-05-09T10:25:54.533Z,76.70
2023-05-09T10:28:23.566Z,76.00
2023-05-09T10:31:22.560Z,76.00
2023-05-09T10:33:50.158Z,75.40
2023-05-09T10:36:20.911Z,75.10
2023-05-09T10:38:48.037Z,74.60
2023-05-09T10:41:15.940Z,74.20
2023-05-09T10:43:45.708Z,73.90
2023-05-09T10:46:12.759Z,73.90
2023-05-09T10:48:39.593Z,73.80
2023-05-09T10:51:06.366Z,73.50
2023-05-09T10:53:49.235Z,72.70
2023-05-09T10:56:26.593Z,72.20
2023-05-09T10:58:53.381Z,72.20
2023-05-09T11:01:37.399Z,72.40
2023-05-09T11:04:11.274Z,72.50
2023-05-09T11:06:41.006Z,72.90
2023-05-09T11:09:26.455Z,73.10
2023-05-09T11:12:07.496Z,73.20
2023-05-09T11:14:43.780Z,73.60
2023-05-09T11:17:14.938Z,73.70
2023-05-09T11:19:47.697Z,73.70
2023-05-09T11:22:22.374Z,73.70
2023-05-09T11:24:50.186Z,73.30
2023-05-09T11:27:24.497Z,73.00
2023-05-09T11:29:54.593Z,71.90
2023-05-09T11:32:22.193Z,71.20
2023-05-09T11:34:49.206Z,70.00
2023-05-09T11:37:19.287Z,69.00
2023-05-09T11:39:56.657Z,67.50
2023-05-09T11:42:24.200Z,65.60
2023-05-09T11:44:51.547Z,65.30
2023-05-09T11:47:18.349Z,65.10
2023-05-09T11:49:45.115Z,65.30
2023-05-09T11:52:11.811Z,65.70
2023-05-09T11:54:39.193Z,66.10
2023-05-09T11:57:06.553Z,66.40
2023-05-09T11:59:36.563Z,67.00
2023-05-09T12:02:06.622Z,67.40
2023-05-09T12:04:33.670Z,67.80
2023-05-09T12:07:01.007Z,68.20
2023-05-09T12:09:34.769Z,68.60
2023-05-09T12:12:01.752Z,68.80
2023-05-09T12:14:34.877Z,69.10
2023-05-09T12:17:01.551Z,69.20
2023-05-09T12:19:28.360Z,69.40
2023-05-09T12:22:01.789Z,69.60
2023-05-09T12:24:29.801Z,69.60
2023-05-09T12:26:57.259Z,69.70
2023-05-09T12:29:24.416Z,69.80
2023-05-09T12:31:52.486Z,69.80
2023-05-09T12:34:19.259Z,69.90
2023-05-09T12:36:46.478Z,69.70
2023-05-09T20:39:02.868Z,79.50
2023-05-09T20:41:29.538Z,79.60
2023-05-09T20:43:56.886Z,79.50
2023-05-09T20:46:23.562Z,79.50
2023-05-09T20:48:50.245Z,79.50
2023-05-09T20:51:16.914Z,79.60
2023-05-09T20:53:43.625Z,79.70
2023-05-09T20:56:10.314Z,79.80
2023-05-09T20:58:37.035Z,79.90
2023-05-09T21:01:03.766Z,79.90
2023-05-09T21:03:30.529Z,80.00
2023-05-09T21:05:58.438Z,80.00
2023-05-09T21:08:25.672Z,80.10
2023-05-09T21:10:52.579Z,80.30
2023-05-09T21:13:19.359Z,80.30
2023-05-09T21:15:49.150Z,80.40
2023-05-09T21:18:15.874Z,80.60
2023-05-09T21:20:42.536Z,80.50
2023-05-09T21:23:09.215Z,80.40
2023-05-09T21:25:35.904Z,80.40
2023-05-09T21:28:02.561Z,80.60
2023-05-09T21:30:29.223Z,80.60
2023-05-09T21:32:55.931Z,80.60
2023-05-09T21:35:22.714Z,80.50
2023-05-09T21:37:49.386Z,80.60
2023-05-09T21:40:16.464Z,80.50
2023-05-09T21:42:43.342Z,80.50
2023-05-09T21:45:10.495Z,80.50
2023-05-09T21:47:37.394Z,80.70
2023-05-09T21:50:04.378Z,80.70
2023-05-09T21:52:31.357Z,80.90
2023-05-09T21:54:58.202Z,80.90
2023-05-09T21:57:24.958Z,80.90
2023-05-09T21:59:51.977Z,81.80
2023-05-09T22:02:18.668Z,81.00
2023-05-09T22:04:45.517Z,81.20
2023-05-09T22:07:12.234Z,81.20
2023-05-09T22:09:38.951Z,81.20
2023-05-09T22:12:05.748Z,81.30
2023-05-09T22:14:37.159Z,81.30
2023-05-09T22:17:08.834Z,81.30
2023-05-09T22:19:35.565Z,81.40
2023-05-09T22:22:02.240Z,81.50
2023-05-09T22:24:28.881Z,81.40
2023-05-09T22:26:55.554Z,81.50
2023-05-09T22:29:22.196Z,81.60
2023-05-09T22:31:48.898Z,81.60
2023-05-09T22:34:15.612Z,81.70
2023-05-09T22:36:46.260Z,81.90
2023-05-09T22:39:13.062Z,82.00
2023-05-09T22:41:39.740Z,82.00
2023-05-09T22:44:06.439Z,82.00
2023-05-09T22:46:33.241Z,82.20
2023-05-09T22:48:59.972Z,82.20
2023-05-09T22:51:26.684Z,82.10
2023-05-09T22:53:53.396Z,82.00
2023-05-09T22:56:20.107Z,82.10
2023-05-09T22:58:46.803Z,82.10
2023-05-09T23:01:16.121Z,82.10
2023-05-09T23:03:44.252Z,82.30
2023-05-09T23:06:11.540Z,82.20
2023-05-09T23:08:38.389Z,82.20
2023-05-09T23:11:05.358Z,82.20
2023-05-09T23:13:32.158Z,82.20
2023-05-09T23:15:59.162Z,82.20
2023-05-09T23:18:25.944Z,82.20
2023-05-09T23:20:52.921Z,82.20
2023-05-09T23:23:19.896Z,82.20
2023-05-09T23:25:46.906Z,82.30
2023-05-09T23:28:13.863Z,82.30
2023-05-09T23:30:40.856Z,82.30
2023-05-09T23:33:07.752Z,82.40
2023-05-09T23:35:34.526Z,82.40
2023-05-09T23:38:01.294Z,82.50
2023-05-09T23:40:28.052Z,82.40
2023-05-09T23:42:55.691Z,82.30
2023-05-09T23:45:22.687Z,82.30
2023-05-09T23:47:49.650Z,82.30
2023-05-09T23:50:16.619Z,82.40
2023-05-09T23:52:43.742Z,82.50
2023-05-09T23:55:10.543Z,82.60
2023-05-09T23:57:37.412Z,82.60
